createdAt,value
2019-04-13T00:00:33.271Z,8.30
2019-04-13T00:01:33.324Z,8.10
2019-04-13T00:02:33.273Z,8.10
2019-04-13T00:03:33.253Z,7.60
2019-04-13T00:04:33.260Z,7.90
2019-04-13T00:05:33.297Z,7.80
2019-04-13T00:06:33.324Z,8.40
2019-04-13T00:07:33.315Z,8.00
2019-04-13T00:08:33.272Z,8.10
2019-04-13T00:09:33.292Z,8.10
2019-04-13T00:10:33.303Z,8.00
2019-04-13T00:11:33.313Z,8.10
2019-04-13T00:12:33.301Z,8.10
2019-04-13T00:13:33.298Z,8.00
2019-04-13T00:14:33.315Z,8.40
2019-04-13T00:15:33.316Z,8.10
2019-04-13T00:16:33.311Z,8.30
2019-04-13T00:17:33.333Z,8.30
2019-04-13T00:18:33.315Z,8.10
2019-04-13T00:19:33.318Z,8.00
2019-04-13T00:20:33.297Z,8.10
2019-04-13T00:21:33.353Z,8.00
2019-04-13T00:22:33.328Z,8.50
2019-04-13T00:23:33.339Z,8.00
2019-04-13T00:24:33.322Z,8.10
2019-04-13T00:25:33.331Z,8.40
2019-04-13T00:26:33.336Z,8.10
2019-04-13T00:27:33.340Z,8.30
2019-04-13T00:28:33.384Z,8.00
2019-04-13T00:29:33.335Z,8.10
2019-04-13T00:30:33.337Z,8.10
2019-04-13T00:31:33.340Z,7.80
2019-04-13T00:32:33.349Z,8.30
2019-04-13T00:33:33.347Z,8.10
2019-04-13T00:34:41.400Z,8.00
2019-04-13T00:35:33.433Z,8.30
2019-04-13T00:36:33.359Z,8.60
2019-04-13T00:37:33.375Z,8.70
2019-04-13T00:38:33.360Z,8.40
2019-04-13T00:39:33.394Z,7.50
2019-04-13T00:40:33.378Z,8.10
2019-04-13T00:41:33.389Z,8.70
2019-04-13T00:42:35.748Z,8.30
2019-04-13T00:43:33.373Z,8.30
2019-04-13T00:44:33.475Z,8.40
2019-04-13T00:45:33.391Z,8.80
2019-04-13T00:46:33.388Z,8.50
2019-04-13T00:47:33.390Z,8.50
2019-04-13T00:48:33.394Z,9.00
2019-04-13T00:49:33.406Z,8.60
2019-04-13T00:50:33.421Z,8.50
2019-04-13T00:51:33.394Z,8.70
2019-04-13T00:52:33.423Z,8.90
2019-04-13T00:53:33.408Z,8.80
2019-04-13T00:54:33.455Z,8.20
2019-04-13T00:55:33.449Z,8.80
2019-04-13T00:56:33.447Z,8.50
2019-04-13T00:57:33.416Z,8.80
2019-04-13T00:58:33.421Z,8.20
2019-04-13T00:59:33.417Z,9.00
2019-04-13T01:00:33.495Z,8.60
2019-04-13T01:01:33.484Z,9.50
2019-04-13T01:02:33.431Z,8.70
2019-04-13T01:03:33.477Z,9.00
2019-04-13T01:04:33.446Z,8.70
2019-04-13T01:05:33.470Z,9.00
2019-04-13T01:06:33.448Z,8.50
2019-04-13T01:07:33.465Z,8.80
2019-04-13T01:08:33.449Z,9.20
2019-04-13T01:09:33.461Z,8.90
2019-04-13T01:10:33.494Z,8.90
2019-04-13T01:11:33.471Z,9.30
2019-04-13T01:12:33.520Z,9.00
2019-04-13T01:13:33.463Z,8.70
2019-04-13T01:14:33.466Z,9.10
2019-04-13T01:15:33.473Z,8.90
2019-04-13T01:16:33.479Z,8.80
2019-04-13T01:17:33.515Z,9.50
2019-04-13T01:18:33.519Z,9.10
2019-04-13T01:19:33.474Z,9.10
2019-04-13T01:20:33.480Z,9.00
2019-04-13T01:21:33.485Z,8.80
2019-04-13T01:22:33.561Z,8.90
2019-04-13T01:23:33.521Z,9.20
2019-04-13T01:24:33.499Z,9.20
2019-04-13T01:25:33.504Z,9.80
2019-04-13T01:26:33.495Z,9.20
2019-04-13T01:27:33.522Z,9.10
2019-04-13T01:28:33.516Z,9.10
2019-04-13T01:29:33.563Z,9.40
2019-04-13T01:30:33.509Z,8.50
2019-04-13T01:31:33.584Z,8.80
2019-04-13T01:32:33.571Z,9.30
2019-04-13T01:33:33.535Z,9.60
2019-04-13T01:34:33.545Z,8.90
2019-04-13T01:35:33.518Z,8.80
2019-04-13T01:36:33.528Z,8.60
2019-04-13T01:37:33.535Z,9.30
2019-04-13T01:38:33.538Z,10.30
2019-04-13T01:39:33.537Z,8.90
2019-04-13T01:40:33.565Z,9.60
2019-04-13T01:41:33.526Z,9.20
2019-04-13T01:42:33.550Z,9.20
2019-04-13T01:43:33.531Z,9.60
2019-04-13T01:44:33.585Z,9.10
2019-04-13T01:45:33.607Z,9.70
2019-04-13T01:46:33.545Z,9.70
2019-04-13T01:47:33.557Z,9.90
2019-04-13T01:48:33.553Z,9.40
2019-04-13T01:49:33.549Z,9.30
2019-04-13T01:50:33.555Z,9.30
2019-04-13T01:51:33.580Z,9.50
2019-04-13T01:52:33.584Z,9.50
2019-04-13T01:53:33.578Z,9.00
2019-04-13T01:54:33.584Z,9.50
2019-04-13T01:55:33.624Z,9.20
2019-04-13T01:56:33.590Z,8.80
2019-04-13T01:57:33.586Z,10.00
2019-04-13T01:58:33.581Z,9.00
2019-04-13T01:59:33.609Z,9.40
2019-04-13T02:00:33.613Z,9.30
2019-04-13T02:01:33.609Z,9.10
2019-04-13T02:02:33.591Z,9.30
2019-04-13T02:03:33.607Z,9.40
2019-04-13T02:04:33.607Z,9.90
2019-04-13T02:05:33.626Z,9.50
2019-04-13T02:06:33.659Z,9.50
2019-04-13T02:07:33.621Z,9.50
2019-04-13T02:08:33.605Z,9.30
2019-04-13T02:09:33.642Z,9.30
2019-04-13T02:10:33.685Z,9.10
2019-04-13T02:11:33.644Z,8.60
2019-04-13T02:12:33.660Z,9.60
2019-04-13T02:13:33.635Z,9.10
2019-04-13T02:14:33.718Z,9.20
2019-04-13T02:15:33.625Z,9.30
2019-04-13T02:16:33.637Z,9.90
2019-04-13T02:17:33.627Z,9.00
2019-04-13T02:18:33.642Z,9.60
2019-04-13T02:19:33.672Z,9.50
2019-04-13T02:20:33.694Z,9.40
2019-04-13T02:21:33.654Z,9.20
2019-04-13T02:22:33.658Z,9.20
2019-04-13T02:23:33.652Z,8.70
2019-04-13T02:24:33.650Z,9.40
2019-04-13T02:25:33.738Z,10.30
2019-04-13T02:26:33.666Z,9.40
2019-04-13T02:27:33.697Z,9.90
2019-04-13T02:28:33.678Z,9.80
2019-04-13T02:29:33.667Z,9.20
2019-04-13T02:30:33.683Z,9.20
2019-04-13T02:31:33.694Z,9.40
2019-04-13T02:32:33.678Z,9.60
2019-04-13T02:33:33.698Z,9.90
2019-04-13T02:34:33.732Z,9.30
2019-04-13T02:35:35.780Z,8.90
2019-04-13T02:36:33.690Z,9.40
2019-04-13T02:37:33.683Z,8.80
2019-04-13T02:38:33.697Z,9.70
2019-04-13T02:39:33.742Z,9.70
2019-04-13T02:40:33.701Z,8.90
2019-04-13T02:41:33.716Z,9.30
2019-04-13T02:42:33.713Z,9.00
2019-04-13T02:43:33.718Z,9.50
2019-04-13T02:44:33.743Z,9.30
2019-04-13T02:45:33.732Z,9.40
2019-04-13T02:46:33.754Z,9.90
2019-04-13T02:47:33.714Z,9.20
2019-04-13T02:48:33.727Z,9.00
2019-04-13T02:49:33.719Z,9.80
2019-04-13T02:50:33.766Z,9.00
2019-04-13T02:51:33.727Z,9.60
2019-04-13T02:52:33.745Z,9.50
2019-04-13T02:53:33.737Z,9.70
2019-04-13T02:54:33.740Z,9.60
2019-04-13T02:55:33.747Z,9.40
2019-04-13T02:56:33.757Z,9.60
2019-04-13T02:57:33.761Z,9.60
2019-04-13T02:58:33.751Z,9.20
2019-04-13T02:59:33.754Z,9.40
2019-04-13T03:00:33.782Z,9.30
2019-04-13T03:01:33.786Z,9.10
2019-04-13T03:02:33.762Z,9.50
2019-04-13T03:03:33.785Z,9.40
2019-04-13T03:04:33.766Z,9.30
2019-04-13T03:05:46.127Z,9.40
2019-04-13T03:06:33.831Z,9.60
2019-04-13T03:07:33.802Z,9.30
2019-04-13T03:08:33.784Z,9.40
2019-04-13T03:09:33.805Z,9.10
2019-04-13T03:10:33.796Z,9.50
2019-04-13T03:11:33.775Z,9.80
2019-04-13T03:12:33.833Z,9.80
2019-04-13T03:13:33.778Z,9.40
2019-04-13T03:14:33.814Z,9.40
2019-04-13T03:15:33.782Z,9.60
2019-04-13T03:16:33.912Z,9.50
2019-04-13T03:17:33.805Z,9.30
2019-04-13T03:18:33.821Z,9.90
2019-04-13T03:19:33.815Z,8.80
2019-04-13T03:20:33.796Z,9.30
2019-04-13T03:21:33.819Z,9.60
2019-04-13T03:22:33.825Z,9.00
2019-04-13T03:23:34.312Z,9.50
2019-04-13T03:24:33.806Z,9.50
2019-04-13T03:25:33.813Z,9.20
2019-04-13T03:26:33.822Z,10.00
2019-04-13T03:27:33.826Z,9.30
2019-04-13T03:28:33.841Z,9.40
2019-04-13T03:29:33.872Z,9.60
2019-04-13T03:30:33.855Z,9.20
2019-04-13T03:31:33.844Z,9.30
2019-04-13T03:32:33.852Z,9.50
2019-04-13T03:33:33.854Z,9.60
2019-04-13T03:34:33.857Z,9.00
2019-04-13T03:35:33.867Z,9.20
2019-04-13T03:36:33.882Z,9.20
2019-04-13T03:37:33.861Z,9.00
2019-04-13T03:38:33.859Z,9.50
2019-04-13T03:39:33.868Z,9.40
2019-04-13T03:40:33.888Z,8.80
2019-04-13T03:41:33.927Z,9.30
2019-04-13T03:42:33.876Z,9.10
2019-04-13T03:43:33.866Z,8.40
2019-04-13T03:44:33.874Z,9.40
2019-04-13T03:45:33.879Z,8.50
2019-04-13T03:46:33.908Z,8.90
2019-04-13T03:47:33.905Z,9.10
2019-04-13T03:48:33.945Z,8.60
2019-04-13T03:49:33.889Z,8.90
2019-04-13T03:50:33.898Z,9.30
2019-04-13T03:51:33.906Z,9.10
2019-04-13T03:52:33.885Z,9.50
2019-04-13T03:53:33.889Z,8.60
2019-04-13T03:54:33.989Z,8.80
2019-04-13T03:55:33.986Z,8.80
2019-04-13T03:56:33.904Z,9.00
2019-04-13T03:57:33.913Z,8.70
2019-04-13T03:58:33.926Z,9.30
2019-04-13T03:59:33.937Z,8.40
2019-04-13T04:00:33.916Z,8.80
2019-04-13T04:01:33.909Z,8.80
2019-04-13T04:02:33.921Z,9.00
2019-04-13T04:03:34.013Z,8.50
2019-04-13T04:04:33.927Z,9.10
2019-04-13T04:05:33.935Z,8.90
2019-04-13T04:06:33.943Z,8.30
2019-04-13T04:07:33.933Z,8.60
2019-04-13T04:08:33.946Z,8.90
2019-04-13T04:09:33.959Z,8.50
2019-04-13T04:10:33.992Z,8.70
2019-04-13T04:11:33.960Z,8.50
2019-04-13T04:12:33.944Z,8.70
2019-04-13T04:13:33.975Z,8.10
2019-04-13T04:14:33.993Z,8.30
2019-04-13T04:15:33.988Z,9.10
2019-04-13T04:16:33.961Z,8.60
2019-04-13T04:17:33.956Z,8.50
2019-04-13T04:18:33.959Z,8.50
2019-04-13T04:19:33.965Z,8.60
2019-04-13T04:20:34.027Z,8.50
2019-04-13T04:21:33.988Z,8.50
2019-04-13T04:22:33.996Z,8.70
2019-04-13T04:23:33.974Z,8.70
2019-04-13T04:24:33.990Z,9.00
2019-04-13T04:25:33.994Z,7.80
2019-04-13T04:26:34.028Z,8.30
2019-04-13T04:27:34.002Z,8.60
2019-04-13T04:28:33.987Z,8.30
2019-04-13T04:29:33.992Z,8.40
2019-04-13T04:30:34.054Z,8.70
2019-04-13T04:31:34.008Z,8.60
2019-04-13T04:32:34.021Z,8.40
2019-04-13T04:33:34.009Z,8.10
2019-04-13T04:34:34.018Z,8.30
2019-04-13T04:35:34.018Z,8.30
2019-04-13T04:36:34.037Z,8.10
2019-04-13T04:37:34.021Z,8.50
2019-04-13T04:38:34.007Z,7.70
2019-04-13T04:39:34.017Z,8.40
2019-04-13T04:40:35.323Z,8.20
2019-04-13T04:41:34.061Z,8.30
2019-04-13T04:42:34.023Z,8.30
2019-04-13T04:43:34.021Z,8.10
2019-04-13T04:44:34.029Z,8.40
2019-04-13T04:45:34.036Z,7.60
2019-04-13T04:46:34.095Z,8.40
2019-04-13T04:47:34.048Z,8.70
2019-04-13T04:48:34.068Z,8.40
2019-04-13T04:49:34.042Z,7.60
2019-04-13T04:50:34.058Z,8.40
2019-04-13T04:51:34.051Z,8.40
2019-04-13T04:52:34.062Z,8.20
2019-04-13T04:53:34.057Z,8.50
2019-04-13T04:54:34.052Z,8.50
2019-04-13T04:55:34.064Z,8.30
2019-04-13T04:56:34.064Z,8.00
2019-04-13T04:57:34.178Z,8.40
2019-04-13T04:58:34.114Z,7.70
2019-04-13T04:59:34.102Z,7.90
2019-04-13T05:00:34.072Z,8.40
2019-04-13T05:01:34.078Z,8.30
2019-04-13T05:02:34.112Z,7.50
2019-04-13T05:03:34.096Z,7.80
2019-04-13T05:04:34.101Z,8.40
2019-04-13T05:05:34.079Z,7.90
2019-04-13T05:06:35.853Z,8.00
2019-04-13T05:07:34.087Z,7.80
2019-04-13T05:08:34.130Z,7.90
2019-04-13T05:09:34.095Z,8.10
2019-04-13T05:10:34.101Z,8.40
2019-04-13T05:11:34.119Z,8.00
2019-04-13T05:12:34.095Z,8.00
2019-04-13T05:13:34.161Z,8.30
2019-04-13T05:14:34.103Z,8.00
2019-04-13T05:15:34.133Z,8.20
2019-04-13T05:16:34.134Z,8.10
2019-04-13T05:17:34.121Z,8.30
2019-04-13T05:18:34.123Z,8.00
2019-04-13T05:19:34.174Z,8.00
2019-04-13T05:20:34.159Z,7.80
2019-04-13T05:21:34.134Z,7.50
2019-04-13T05:22:34.155Z,7.90
2019-04-13T05:23:34.134Z,8.90
2019-04-13T05:24:34.159Z,7.80
2019-04-13T05:25:34.188Z,8.00
2019-04-13T05:26:34.200Z,8.10
2019-04-13T05:27:34.149Z,7.80
2019-04-13T05:28:34.156Z,8.00
2019-04-13T05:29:34.177Z,8.00
2019-04-13T05:30:34.165Z,7.60
2019-04-13T05:31:34.155Z,7.50
2019-04-13T05:32:34.161Z,8.00
2019-04-13T05:33:34.223Z,7.70
2019-04-13T05:34:34.170Z,8.00
2019-04-13T05:35:34.192Z,8.00
2019-04-13T05:36:34.184Z,8.50
2019-04-13T05:37:34.217Z,7.80
2019-04-13T05:38:34.233Z,7.70
2019-04-13T05:39:34.186Z,7.60
2019-04-13T05:40:34.217Z,7.70
2019-04-13T05:41:34.215Z,8.30
2019-04-13T05:42:34.191Z,8.00
2019-04-13T05:43:34.214Z,8.00
2019-04-13T05:44:34.185Z,8.10
2019-04-13T05:45:36.506Z,7.80
2019-04-13T05:46:34.211Z,8.00
2019-04-13T05:47:34.221Z,7.40
2019-04-13T05:48:34.242Z,7.90
2019-04-13T05:49:34.216Z,8.20
2019-04-13T05:50:34.226Z,7.80
2019-04-13T05:51:34.217Z,8.10
2019-04-13T05:52:34.226Z,7.80
2019-04-13T05:53:34.227Z,7.90
2019-04-13T05:54:34.294Z,8.20
2019-04-13T05:55:34.224Z,8.00
2019-04-13T05:56:34.222Z,7.80
2019-04-13T05:57:34.513Z,8.40
2019-04-13T05:58:34.238Z,7.60
2019-04-13T05:59:34.239Z,8.00
2019-04-13T06:00:34.280Z,7.90
2019-04-13T06:01:34.259Z,8.10
2019-04-13T06:02:35.849Z,8.00
2019-04-13T06:03:34.250Z,8.30
2019-04-13T06:04:34.295Z,8.10
2019-04-13T06:05:34.286Z,8.30
2019-04-13T06:06:34.273Z,7.90
2019-04-13T06:07:34.252Z,7.90
2019-04-13T06:08:36.094Z,8.00
2019-04-13T06:09:34.289Z,8.40
2019-04-13T06:10:34.293Z,7.70
2019-04-13T06:11:35.780Z,8.20
2019-04-13T06:12:34.283Z,8.10
2019-04-13T06:13:34.284Z,7.50
2019-04-13T06:14:34.286Z,7.50
2019-04-13T06:15:34.384Z,8.00
2019-04-13T06:16:34.286Z,8.40
2019-04-13T06:17:34.293Z,8.20
2019-04-13T06:18:34.303Z,7.60
2019-04-13T06:19:36.585Z,7.60
2019-04-13T06:20:34.311Z,8.10
2019-04-13T06:21:34.314Z,8.10
2019-04-13T06:22:34.331Z,7.90
2019-04-13T06:23:34.304Z,8.10
2019-04-13T06:24:34.308Z,8.10
2019-04-13T06:25:34.325Z,8.20
2019-04-13T06:26:34.376Z,8.20
2019-04-13T06:27:34.353Z,8.00
2019-04-13T06:28:34.337Z,8.10
2019-04-13T06:29:34.346Z,7.70
2019-04-13T06:30:34.337Z,8.00
2019-04-13T06:31:34.353Z,8.10
2019-04-13T06:32:34.365Z,7.80
2019-04-13T06:33:34.341Z,7.80
2019-04-13T06:34:34.342Z,7.70
2019-04-13T06:35:34.353Z,8.10
2019-04-13T06:36:34.358Z,8.00
2019-04-13T06:37:34.352Z,8.00
2019-04-13T06:38:34.387Z,7.70
2019-04-13T06:39:35.193Z,7.60
2019-04-13T06:40:34.400Z,7.90
2019-04-13T06:41:34.856Z,8.10
2019-04-13T06:42:34.384Z,7.40
2019-04-13T06:43:34.423Z,7.60
2019-04-13T06:44:36.256Z,7.40
2019-04-13T06:45:34.390Z,7.10
2019-04-13T06:46:34.384Z,8.00
2019-04-13T06:47:34.391Z,7.60
2019-04-13T06:48:36.732Z,7.40
2019-04-13T06:49:34.429Z,7.80
2019-04-13T06:50:34.448Z,7.00
2019-04-13T06:51:34.392Z,7.40
2019-04-13T06:52:36.098Z,7.40
2019-04-13T06:53:38.379Z,7.50
2019-04-13T06:54:34.809Z,7.30
2019-04-13T06:55:34.408Z,7.30
2019-04-13T06:56:34.403Z,7.50
2019-04-13T06:57:34.423Z,7.20
2019-04-13T06:58:34.488Z,7.40
2019-04-13T06:59:36.417Z,7.40
2019-04-13T07:00:34.442Z,7.80
2019-04-13T07:01:34.433Z,7.80
2019-04-13T07:02:34.440Z,7.30
2019-04-13T07:03:34.449Z,7.20
2019-04-13T07:04:34.458Z,7.10
2019-04-13T07:05:34.442Z,7.50
2019-04-13T07:06:34.468Z,7.50
2019-04-13T07:07:45.135Z,7.50
2019-04-13T07:08:38.411Z,7.20
2019-04-13T07:09:40.333Z,7.40
2019-04-13T07:10:43.812Z,6.70
2019-04-13T07:11:34.496Z,7.50
2019-04-13T07:12:34.471Z,7.50
2019-04-13T07:13:34.482Z,7.60
2019-04-13T07:14:34.483Z,7.30
2019-04-13T07:15:45.751Z,7.40
2019-04-13T07:16:34.472Z,7.50
2019-04-13T07:17:34.488Z,7.10
2019-04-13T07:18:36.046Z,7.40
2019-04-13T07:19:34.509Z,7.20
2019-04-13T07:20:34.493Z,7.40
2019-04-13T07:21:34.533Z,7.60
2019-04-13T07:22:34.504Z,7.30
2019-04-13T07:23:34.515Z,7.50
2019-04-13T07:24:34.528Z,7.60
2019-04-13T07:25:34.572Z,7.40
2019-04-13T07:26:34.604Z,7.30
2019-04-13T07:27:34.510Z,7.30
2019-04-13T07:28:34.537Z,7.00
2019-04-13T07:29:34.540Z,7.50
2019-04-13T07:30:34.528Z,7.10
2019-04-13T07:31:34.551Z,8.00
2019-04-13T07:32:35.313Z,7.20
2019-04-13T07:33:34.564Z,7.40
2019-04-13T07:34:34.608Z,7.60
2019-04-13T07:35:36.746Z,8.20
2019-04-13T07:36:34.544Z,7.50
2019-04-13T07:37:36.927Z,7.40
2019-04-13T07:38:34.581Z,7.50
2019-04-13T07:39:34.572Z,7.30
2019-04-13T07:40:34.606Z,8.10
2019-04-13T07:41:34.603Z,8.30
2019-04-13T07:42:34.581Z,7.40
2019-04-13T07:43:34.612Z,8.30
2019-04-13T07:44:34.584Z,7.70
2019-04-13T07:45:35.385Z,7.20
2019-04-13T07:46:34.600Z,7.20
2019-04-13T07:47:34.599Z,7.30
2019-04-13T07:48:34.610Z,7.70
2019-04-13T07:49:34.688Z,7.50
2019-04-13T07:50:36.801Z,7.30
2019-04-13T07:51:34.622Z,7.30
2019-04-13T07:52:34.616Z,8.60
2019-04-13T07:53:35.126Z,10.00
2019-04-13T07:54:34.658Z,8.50
2019-04-13T07:55:36.422Z,7.50
2019-04-13T07:56:34.646Z,7.60
2019-04-13T07:57:34.989Z,7.50
2019-04-13T07:58:34.658Z,7.60
2019-04-13T07:59:34.711Z,8.80
2019-04-13T08:00:34.711Z,8.20
2019-04-13T08:01:34.639Z,7.80
2019-04-13T08:02:34.792Z,7.20
2019-04-13T08:03:34.667Z,7.90
2019-04-13T08:04:34.677Z,8.60
2019-04-13T08:05:34.728Z,7.40
2019-04-13T08:06:36.856Z,7.00
2019-04-13T08:07:34.689Z,7.10
2019-04-13T08:08:40.173Z,7.30
2019-04-13T08:09:34.694Z,7.50
2019-04-13T08:10:34.708Z,8.00
2019-04-13T08:11:34.750Z,7.90
2019-04-13T08:12:34.733Z,8.40
2019-04-13T08:13:34.712Z,7.60
2019-04-13T08:14:34.718Z,7.80
2019-04-13T08:15:34.741Z,7.90
2019-04-13T08:16:34.744Z,7.30
2019-04-13T08:17:34.733Z,7.30
2019-04-13T08:18:34.779Z,7.40
2019-04-13T08:19:34.736Z,7.50
2019-04-13T08:20:34.768Z,7.30
2019-04-13T08:21:34.773Z,7.60
2019-04-13T08:22:36.663Z,7.80
2019-04-13T08:23:34.747Z,15.20
2019-04-13T08:24:34.752Z,12.30
2019-04-13T08:25:36.796Z,10.60
2019-04-13T08:26:34.755Z,9.70
2019-04-13T08:27:34.993Z,9.20
2019-04-13T08:28:34.786Z,7.70
2019-04-13T08:29:34.775Z,8.10
2019-04-13T08:30:36.032Z,7.30
2019-04-13T08:31:34.783Z,7.60
2019-04-13T08:32:35.456Z,7.40
2019-04-13T08:33:34.837Z,7.60
2019-04-13T08:34:34.799Z,7.40
2019-04-13T08:35:34.826Z,7.10
2019-04-13T08:36:34.813Z,7.40
2019-04-13T08:37:37.733Z,7.10
2019-04-13T08:38:34.826Z,7.70
2019-04-13T08:39:34.833Z,6.90
2019-04-13T08:40:34.847Z,7.90
2019-04-13T08:41:34.851Z,7.10
2019-04-13T08:42:34.852Z,7.10
2019-04-13T08:43:34.899Z,7.30
2019-04-13T08:44:36.820Z,7.50
2019-04-13T08:45:34.841Z,7.60
2019-04-13T08:46:34.894Z,7.40
2019-04-13T08:47:34.848Z,6.90
2019-04-13T08:48:34.917Z,7.20
2019-04-13T08:49:34.897Z,7.20
2019-04-13T08:50:35.055Z,7.50
2019-04-13T08:51:34.869Z,8.30
2019-04-13T08:52:34.874Z,7.60
2019-04-13T08:53:34.926Z,7.40
2019-04-13T08:54:34.907Z,7.50
2019-04-13T08:55:34.904Z,7.30
2019-04-13T08:56:34.911Z,7.10
2019-04-13T08:57:34.975Z,7.20
2019-04-13T08:58:34.921Z,7.10
2019-04-13T08:59:34.929Z,7.10
2019-04-13T09:00:34.948Z,7.30
2019-04-13T09:01:34.934Z,7.10
2019-04-13T09:02:35.009Z,7.40
2019-04-13T09:03:34.947Z,7.80
2019-04-13T09:04:34.998Z,7.20
2019-04-13T09:05:34.993Z,7.50
2019-04-13T09:06:34.970Z,7.40
2019-04-13T09:07:36.137Z,7.20
2019-04-13T09:08:34.984Z,7.40
2019-04-13T09:09:36.053Z,7.30
2019-04-13T09:10:35.256Z,7.80
2019-04-13T09:11:35.212Z,7.20
2019-04-13T09:12:34.990Z,7.20
2019-04-13T09:13:35.959Z,7.20
2019-04-13T09:14:35.117Z,7.00
2019-04-13T09:15:35.109Z,7.40
2019-04-13T09:16:35.346Z,7.40
2019-04-13T09:17:35.026Z,7.10
2019-04-13T09:18:35.020Z,7.40
2019-04-13T09:19:39.460Z,7.20
2019-04-13T09:20:37.008Z,8.50
2019-04-13T09:21:35.037Z,7.50
2019-04-13T09:22:35.653Z,7.40
2019-04-13T09:23:35.932Z,7.30
2019-04-13T09:24:35.086Z,7.30
2019-04-13T09:25:35.108Z,7.10
2019-04-13T09:26:36.618Z,7.30
2019-04-13T09:27:35.505Z,8.60
2019-04-13T09:28:35.095Z,8.30
2019-04-13T09:29:35.091Z,10.90
2019-04-13T09:30:35.131Z,7.70
2019-04-13T09:31:35.093Z,7.20
2019-04-13T09:32:35.120Z,7.20
2019-04-13T09:33:35.751Z,7.50
2019-04-13T09:34:35.104Z,7.70
2019-04-13T09:35:35.113Z,7.50
2019-04-13T09:36:35.231Z,7.40
2019-04-13T09:37:35.134Z,7.60
2019-04-13T09:38:42.260Z,7.70
2019-04-13T09:39:35.144Z,7.80
2019-04-13T09:40:35.147Z,7.80
2019-04-13T09:41:36.499Z,8.20
2019-04-13T09:42:35.193Z,7.90
2019-04-13T09:43:35.193Z,7.40
2019-04-13T09:44:35.176Z,7.70
2019-04-13T09:45:35.184Z,8.90
2019-04-13T09:46:37.512Z,8.10
2019-04-13T09:47:35.185Z,7.90
2019-04-13T09:48:35.255Z,9.20
2019-04-13T09:49:35.220Z,7.60
2019-04-13T09:50:36.885Z,7.70
2019-04-13T09:51:35.219Z,8.20
2019-04-13T09:52:35.271Z,8.40
2019-04-13T09:53:35.231Z,7.90
2019-04-13T09:54:35.230Z,7.70
2019-04-13T09:55:35.254Z,7.90
2019-04-13T09:56:37.585Z,8.00
2019-04-13T09:57:35.279Z,8.30
2019-04-13T09:58:35.871Z,7.70
2019-04-13T09:59:35.285Z,8.10
2019-04-13T10:00:35.280Z,8.50
2019-04-13T10:01:35.303Z,7.60
2019-04-13T10:02:35.284Z,7.90
2019-04-13T10:03:39.263Z,8.30
2019-04-13T10:04:35.325Z,7.30
2019-04-13T10:05:35.322Z,7.80
2019-04-13T10:06:35.298Z,7.80
2019-04-13T10:07:35.331Z,11.70
2019-04-13T10:08:35.327Z,8.70
2019-04-13T10:09:35.315Z,9.40
2019-04-13T10:10:35.376Z,8.70
2019-04-13T10:11:35.387Z,7.90
2019-04-13T10:12:35.333Z,7.30
2019-04-13T10:13:35.343Z,7.80
2019-04-13T10:14:36.424Z,7.90
2019-04-13T10:15:35.523Z,7.90
2019-04-13T10:16:35.353Z,10.90
2019-04-13T10:17:35.401Z,11.10
2019-04-13T10:18:35.398Z,9.90
2019-04-13T10:19:35.397Z,8.10
2019-04-13T10:20:35.470Z,7.80
2019-04-13T10:21:35.395Z,7.70
2019-04-13T10:22:35.426Z,7.60
2019-04-13T10:23:35.393Z,7.10
2019-04-13T10:24:35.411Z,7.50
2019-04-13T10:25:38.186Z,6.90
2019-04-13T10:26:35.472Z,6.80
2019-04-13T10:27:35.406Z,7.10
2019-04-13T10:28:36.244Z,7.30
2019-04-13T10:29:35.513Z,7.00
2019-04-13T10:30:35.451Z,7.50
2019-04-13T10:31:35.510Z,7.60
2019-04-13T10:32:35.456Z,7.20
2019-04-13T10:33:35.444Z,7.10
2019-04-13T10:34:35.467Z,7.00
2019-04-13T10:35:35.454Z,7.10
2019-04-13T10:36:35.541Z,8.50
2019-04-13T10:37:35.467Z,7.70
2019-04-13T10:38:35.492Z,8.10
2019-04-13T10:39:35.501Z,8.40
2019-04-13T10:40:35.509Z,7.60
2019-04-13T10:41:35.489Z,7.50
2019-04-13T10:42:35.502Z,6.90
2019-04-13T10:43:35.545Z,6.40
2019-04-13T10:44:35.507Z,6.50
2019-04-13T10:45:35.603Z,6.40
2019-04-13T10:46:35.498Z,6.30
2019-04-13T10:47:35.588Z,6.30
2019-04-13T10:48:35.549Z,7.30
2019-04-13T10:49:35.537Z,6.50
2019-04-13T10:50:35.578Z,7.20
2019-04-13T10:51:35.528Z,6.90
2019-04-13T10:52:35.534Z,6.60
2019-04-13T10:53:35.570Z,7.60
2019-04-13T10:54:35.606Z,7.30
2019-04-13T10:55:35.568Z,6.90
2019-04-13T10:56:35.569Z,6.90
2019-04-13T10:57:35.577Z,7.00
2019-04-13T10:58:35.660Z,7.20
2019-04-13T10:59:35.583Z,7.30
2019-04-13T11:00:35.586Z,7.20
2019-04-13T11:01:35.591Z,7.30
2019-04-13T11:02:35.614Z,7.20
2019-04-13T11:03:35.605Z,6.90
2019-04-13T11:04:35.665Z,6.70
2019-04-13T11:05:35.627Z,7.20
2019-04-13T11:06:35.631Z,7.10
2019-04-13T11:07:35.740Z,7.10
2019-04-13T11:08:35.774Z,7.40
2019-04-13T11:09:35.676Z,6.80
2019-04-13T11:10:35.696Z,6.70
2019-04-13T11:11:35.692Z,6.30
2019-04-13T11:12:35.681Z,7.10
2019-04-13T11:13:35.685Z,7.20
2019-04-13T11:14:35.715Z,6.70
2019-04-13T11:15:35.757Z,6.80
2019-04-13T11:16:35.676Z,7.00
2019-04-13T11:17:35.709Z,7.10
2019-04-13T11:18:37.051Z,7.10
2019-04-13T11:19:40.348Z,6.80
2019-04-13T11:20:35.717Z,6.90
2019-04-13T11:21:35.745Z,8.10
2019-04-13T11:22:35.764Z,7.00
2019-04-13T11:23:42.834Z,7.00
2019-04-13T11:24:35.727Z,7.70
2019-04-13T11:25:35.722Z,6.90
2019-04-13T11:26:35.805Z,6.60
2019-04-13T11:27:37.062Z,6.60
2019-04-13T11:28:36.748Z,7.20
2019-04-13T11:29:35.783Z,6.70
2019-04-13T11:30:35.746Z,6.40
2019-04-13T11:31:36.225Z,6.50
2019-04-13T11:32:35.764Z,6.30
2019-04-13T11:33:35.776Z,6.70
2019-04-13T11:34:35.791Z,6.50
2019-04-13T11:35:36.396Z,6.70
2019-04-13T11:36:35.837Z,6.70
2019-04-13T11:37:35.781Z,6.60
2019-04-13T11:38:35.788Z,6.70
2019-04-13T11:39:40.402Z,6.80
2019-04-13T11:40:35.800Z,6.80
2019-04-13T11:41:35.867Z,6.80
2019-04-13T11:42:35.861Z,6.60
2019-04-13T11:43:35.870Z,7.00
2019-04-13T11:44:35.826Z,6.80
2019-04-13T11:45:35.885Z,6.70
2019-04-13T11:46:35.858Z,6.00
2019-04-13T11:47:35.866Z,6.60
2019-04-13T11:48:35.856Z,6.20
2019-04-13T11:49:35.845Z,6.50
2019-04-13T11:50:35.853Z,6.60
2019-04-13T11:51:35.876Z,6.30
2019-04-13T11:52:35.879Z,6.50
2019-04-13T11:53:35.923Z,6.70
2019-04-13T11:54:35.946Z,6.00
2019-04-13T11:55:35.915Z,6.50
2019-04-13T11:56:37.092Z,7.10
2019-04-13T11:57:35.895Z,6.30
2019-04-13T11:58:35.897Z,6.70
2019-04-13T11:59:35.916Z,6.80
2019-04-13T12:00:35.928Z,6.70
2019-04-13T12:01:35.968Z,7.00
2019-04-13T12:02:36.072Z,7.10
2019-04-13T12:03:35.953Z,7.50
2019-04-13T12:04:36.016Z,7.40
2019-04-13T12:05:35.948Z,7.00
2019-04-13T12:06:36.682Z,7.10
2019-04-13T12:07:35.962Z,7.20
2019-04-13T12:08:35.971Z,6.80
2019-04-13T12:09:49.255Z,6.80
2019-04-13T12:10:36.103Z,7.00
2019-04-13T12:11:36.195Z,6.60
2019-04-13T12:12:36.031Z,7.30
2019-04-13T12:13:35.977Z,7.00
2019-04-13T12:14:36.024Z,7.00
2019-04-13T12:15:38.446Z,7.90
2019-04-13T12:16:36.041Z,8.10
2019-04-13T12:55:56.058Z,8.30
2019-04-13T12:56:52.346Z,8.30
2019-04-13T12:57:52.443Z,9.00
2019-04-13T12:58:55.424Z,8.50
2019-04-13T12:59:52.375Z,8.60
2019-04-13T13:00:52.207Z,8.20
2019-04-13T13:01:52.382Z,8.90
2019-04-13T13:02:52.969Z,8.60
2019-04-13T13:03:52.303Z,8.10
2019-04-13T13:04:52.966Z,8.90
2019-04-13T13:05:52.195Z,8.80
2019-04-13T13:06:52.285Z,9.10
2019-04-13T13:07:52.218Z,8.80
2019-04-13T13:08:52.271Z,8.80
2019-04-13T13:09:52.210Z,9.00
2019-04-13T13:10:52.217Z,8.30
2019-04-13T13:11:52.225Z,8.80
2019-04-13T13:12:52.200Z,8.70
2019-04-13T13:13:52.914Z,8.80
2019-04-13T13:14:52.213Z,8.80
2019-04-13T13:15:52.218Z,9.10
2019-04-13T13:16:52.243Z,8.40
2019-04-13T13:17:54.580Z,8.60
2019-04-13T13:18:52.320Z,8.90
2019-04-13T13:19:52.239Z,9.10
2019-04-13T13:20:52.513Z,8.70
2019-04-13T13:21:52.294Z,9.00
2019-04-13T13:22:52.267Z,8.40
2019-04-13T13:23:52.259Z,8.80
2019-04-13T13:24:52.260Z,8.90
2019-04-13T13:25:52.311Z,8.90
2019-04-13T13:26:52.363Z,9.10
2019-04-13T13:27:52.694Z,8.50
2019-04-13T13:28:52.336Z,8.70
2019-04-13T13:29:52.283Z,9.20
2019-04-13T13:30:52.381Z,8.90
2019-04-13T13:31:52.310Z,8.50
2019-04-13T13:32:52.433Z,8.50
2019-04-13T13:33:52.322Z,8.70
2019-04-13T13:34:52.318Z,9.00
2019-04-13T13:35:52.317Z,8.40
2019-04-13T13:36:54.152Z,9.60
2019-04-13T13:37:52.336Z,9.10
2019-04-13T13:38:52.360Z,9.00
2019-04-13T13:39:52.335Z,8.70
2019-04-13T13:40:52.368Z,9.10
2019-04-13T13:41:52.352Z,9.10
2019-04-13T13:42:52.358Z,8.40
2019-04-13T13:43:54.138Z,9.30
2019-04-13T13:44:52.595Z,9.00
2019-04-13T13:45:52.386Z,8.60
2019-04-13T13:46:52.943Z,9.10
2019-04-13T13:47:52.568Z,8.90
2019-04-13T13:48:52.423Z,9.40
2019-04-13T13:49:52.409Z,9.30
2019-04-13T13:50:53.101Z,8.90
2019-04-13T13:51:56.230Z,8.40
2019-04-13T13:52:52.419Z,9.20
2019-04-13T13:53:52.428Z,8.40
2019-04-13T13:54:52.416Z,8.70
2019-04-13T13:55:52.434Z,8.60
2019-04-13T13:56:52.442Z,9.10